sensor_id;sensor_type;location;lat;lon;timestamp;pressure;altitude;pressure_sealevel;temperature;humidity
49541;BME280;35432;43.566;1.398;2023-02-12T00:02:25;101583.28;;;5.34;70.10
49541;BME280;35432;43.566;1.398;2023-02-12T00:04:51;101578.84;;;5.31;69.41
49541;BME280;35432;43.566;1.398;2023-02-12T00:07:16;101581.38;;;5.30;70.11
49541;BME280;35432;43.566;1.398;2023-02-12T00:09:42;101584.91;;;5.30;69.70
49541;BME280;35432;43.566;1.398;2023-02-12T00:12:08;101584.13;;;5.33;69.88
49541;BME280;35432;43.566;1.398;2023-02-12T00:14:35;101584.06;;;5.31;69.86
49541;BME280;35432;43.566;1.398;2023-02-12T00:17:01;101580.56;;;5.31;69.83
49541;BME280;35432;43.566;1.398;2023-02-12T00:19:26;101584.84;;;5.29;69.67
49541;BME280;35432;43.566;1.398;2023-02-12T00:21:52;101583.94;;;5.28;70.14
49541;BME280;35432;43.566;1.398;2023-02-12T00:24:17;101580.38;;;5.26;70.08
49541;BME280;35432;43.566;1.398;2023-02-12T00:26:43;101573.38;;;5.25;70.06
49541;BME280;35432;43.566;1.398;2023-02-12T00:29:09;101580.44;;;5.28;69.95
49541;BME280;35432;43.566;1.398;2023-02-12T00:31:34;101578.78;;;5.30;70.12
49541;BME280;35432;43.566;1.398;2023-02-12T00:34:00;101578.91;;;5.33;69.85
49541;BME280;35432;43.566;1.398;2023-02-12T00:36:29;101573.66;;;5.33;69.86
49541;BME280;35432;43.566;1.398;2023-02-12T00:38:55;101565.00;;;5.34;69.53
49541;BME280;35432;43.566;1.398;2023-02-12T00:41:22;101566.78;;;5.35;70.05
49541;BME280;35432;43.566;1.398;2023-02-12T00:43:49;101561.44;;;5.32;69.14
49541;BME280;35432;43.566;1.398;2023-02-12T00:46:14;101564.88;;;5.31;69.06
49541;BME280;35432;43.566;1.398;2023-02-12T00:48:40;101560.50;;;5.30;69.44
49541;BME280;35432;43.566;1.398;2023-02-12T00:51:06;101564.81;;;5.29;69.21
49541;BME280;35432;43.566;1.398;2023-02-12T00:53:32;101558.72;;;5.29;69.39
49541;BME280;35432;43.566;1.398;2023-02-12T00:55:58;101556.94;;;5.28;69.58
49541;BME280;35432;43.566;1.398;2023-02-12T00:58:24;101552.53;;;5.27;69.73
49541;BME280;35432;43.566;1.398;2023-02-12T01:00:50;101551.63;;;5.26;69.09
49541;BME280;35432;43.566;1.398;2023-02-12T01:03:15;101551.59;;;5.25;69.36
49541;BME280;35432;43.566;1.398;2023-02-12T01:05:41;101548.03;;;5.23;69.50
49541;BME280;35432;43.566;1.398;2023-02-12T01:08:07;101549.63;;;5.19;69.14
49541;BME280;35432;43.566;1.398;2023-02-12T01:10:35;101552.16;;;5.17;68.80
49541;BME280;35432;43.566;1.398;2023-02-12T01:13:00;101552.06;;;5.14;69.36
49541;BME280;35432;43.566;1.398;2023-02-12T01:15:25;101549.41;;;5.13;69.45
49541;BME280;35432;43.566;1.398;2023-02-12T01:17:51;101547.63;;;5.12;69.31
49541;BME280;35432;43.566;1.398;2023-02-12T01:20:19;101550.16;;;5.10;69.18
49541;BME280;35432;43.566;1.398;2023-02-12T01:22:45;101550.94;;;5.08;69.42
49541;BME280;35432;43.566;1.398;2023-02-12T01:25:11;101553.50;;;5.06;69.15
49541;BME280;35432;43.566;1.398;2023-02-12T01:27:37;101548.16;;;5.03;69.91
49541;BME280;35432;43.566;1.398;2023-02-12T01:30:03;101548.88;;;4.99;69.35
49541;BME280;35432;43.566;1.398;2023-02-12T01:32:29;101549.50;;;4.93;68.99
49541;BME280;35432;43.566;1.398;2023-02-12T01:34:54;101556.19;;;4.86;69.51
49541;BME280;35432;43.566;1.398;2023-02-12T01:37:20;101546.34;;;4.79;69.79
49541;BME280;35432;43.566;1.398;2023-02-12T01:39:45;101546.97;;;4.73;69.80
49541;BME280;35432;43.566;1.398;2023-02-12T01:42:12;101545.81;;;4.67;69.58
49541;BME280;35432;43.566;1.398;2023-02-12T01:44:43;101547.25;;;4.58;69.30
49541;BME280;35432;43.566;1.398;2023-02-12T01:47:17;101551.13;;;4.47;68.27
49541;BME280;35432;43.566;1.398;2023-02-12T01:49:45;101556.06;;;4.41;69.38
49541;BME280;35432;43.566;1.398;2023-02-12T01:52:19;101548.69;;;4.30;68.83
49541;BME280;35432;43.566;1.398;2023-02-12T01:54:49;101554.41;;;4.22;69.71
49541;BME280;35432;43.566;1.398;2023-02-12T01:57:16;101554.91;;;4.13;69.29
49541;BME280;35432;43.566;1.398;2023-02-12T01:59:44;101554.50;;;4.04;69.38
49541;BME280;35432;43.566;1.398;2023-02-12T02:02:12;101548.84;;;3.93;69.10
49541;BME280;35432;43.566;1.398;2023-02-12T02:04:47;101557.00;;;3.81;68.31
49541;BME280;35432;43.566;1.398;2023-02-12T02:07:14;101553.13;;;3.72;69.19
49541;BME280;35432;43.566;1.398;2023-02-12T02:09:40;101559.72;;;3.64;69.61
49541;BME280;35432;43.566;1.398;2023-02-12T02:12:06;101553.28;;;3.56;69.56
49541;BME280;35432;43.566;1.398;2023-02-12T02:14:53;101549.50;;;3.49;69.48
49541;BME280;35432;43.566;1.398;2023-02-12T02:29:19;101548.69;;;3.12;69.26
49541;BME280;35432;43.566;1.398;2023-02-12T02:34:24;101538.50;;;2.99;69.22
49541;BME280;35432;43.566;1.398;2023-02-12T02:37:03;101537.41;;;2.94;69.65
49541;BME280;35432;43.566;1.398;2023-02-12T02:39:49;101543.97;;;2.85;69.86
49541;BME280;35432;43.566;1.398;2023-02-12T02:42:55;101533.25;;;2.79;70.12
49541;BME280;35432;43.566;1.398;2023-02-12T02:47:57;101523.75;;;2.62;69.35
49541;BME280;35432;43.566;1.398;2023-02-12T02:50:27;101521.66;;;2.54;70.18
49541;BME280;35432;43.566;1.398;2023-02-12T02:53:01;101510.94;;;2.48;69.38
49541;BME280;35432;43.566;1.398;2023-02-12T02:55:31;101523.78;;;2.45;69.75
49541;BME280;35432;43.566;1.398;2023-02-12T02:58:02;101516.66;;;2.41;69.97
49541;BME280;35432;43.566;1.398;2023-02-12T03:00:45;101525.13;;;2.37;69.89
49541;BME280;35432;43.566;1.398;2023-02-12T03:03:39;101519.78;;;2.34;69.66
49541;BME280;35432;43.566;1.398;2023-02-12T03:06:14;101516.13;;;2.30;69.90
49541;BME280;35432;43.566;1.398;2023-02-12T03:08:51;101508.09;;;2.25;69.78
49541;BME280;35432;43.566;1.398;2023-02-12T03:11:22;101513.00;;;2.19;69.68
49541;BME280;35432;43.566;1.398;2023-02-12T03:13:54;101511.94;;;2.15;70.66
49541;BME280;35432;43.566;1.398;2023-02-12T03:16:27;101511.78;;;2.12;70.12
49541;BME280;35432;43.566;1.398;2023-02-12T03:19:18;101509.78;;;2.07;69.35
49541;BME280;35432;43.566;1.398;2023-02-12T03:21:53;101509.69;;;2.05;70.60
49541;BME280;35432;43.566;1.398;2023-02-12T03:24:32;101517.25;;;2.00;70.35
49541;BME280;35432;43.566;1.398;2023-02-12T03:29:37;101512.66;;;1.95;69.82
49541;BME280;35432;43.566;1.398;2023-02-12T03:48:26;101530.91;;;1.80;70.09
49541;BME280;35432;43.566;1.398;2023-02-12T03:51:09;101528.16;;;1.77;70.45
49541;BME280;35432;43.566;1.398;2023-02-12T03:53:39;101528.97;;;1.76;69.85
49541;BME280;35432;43.566;1.398;2023-02-12T03:56:13;101521.81;;;1.71;70.20
49541;BME280;35432;43.566;1.398;2023-02-12T03:58:41;101517.38;;;1.69;69.88
49541;BME280;35432;43.566;1.398;2023-02-12T04:01:07;101522.47;;;1.67;70.71
49541;BME280;35432;43.566;1.398;2023-02-12T04:03:33;101523.19;;;1.65;69.85
49541;BME280;35432;43.566;1.398;2023-02-12T04:05:59;101520.53;;;1.63;70.14
49541;BME280;35432;43.566;1.398;2023-02-12T04:08:26;101517.78;;;1.60;70.39
49541;BME280;35432;43.566;1.398;2023-02-12T04:18:41;101508.63;;;1.50;70.47
49541;BME280;35432;43.566;1.398;2023-02-12T04:24:05;101517.06;;;1.46;70.43
49541;BME280;35432;43.566;1.398;2023-02-12T04:29:16;101520.28;;;1.42;69.94
49541;BME280;35432;43.566;1.398;2023-02-12T04:32:04;101518.50;;;1.41;70.51
49541;BME280;35432;43.566;1.398;2023-02-12T04:37:27;101531.09;;;1.33;70.42
49541;BME280;35432;43.566;1.398;2023-02-12T04:39:57;101532.66;;;1.31;70.59
49541;BME280;35432;43.566;1.398;2023-02-12T04:42:24;101527.31;;;1.28;70.30
49541;BME280;35432;43.566;1.398;2023-02-12T04:44:50;101523.75;;;1.26;70.21
49541;BME280;35432;43.566;1.398;2023-02-12T04:47:16;101525.38;;;1.24;70.86
49541;BME280;35432;43.566;1.398;2023-02-12T04:49:41;101520.19;;;1.24;70.86
49541;BME280;35432;43.566;1.398;2023-02-12T04:52:07;101521.91;;;1.23;70.84
49541;BME280;35432;43.566;1.398;2023-02-12T04:54:33;101528.78;;;1.23;70.18
49541;BME280;35432;43.566;1.398;2023-02-12T04:56:58;101530.41;;;1.21;70.50
49541;BME280;35432;43.566;1.398;2023-02-12T04:59:24;101531.22;;;1.20;70.29
49541;BME280;35432;43.566;1.398;2023-02-12T05:01:50;101537.22;;;1.19;70.59
49541;BME280;35432;43.566;1.398;2023-02-12T05:04:16;101548.41;;;1.18;70.52
49541;BME280;35432;43.566;1.398;2023-02-12T05:06:42;101541.31;;;1.15;70.33
49541;BME280;35432;43.566;1.398;2023-02-12T05:09:13;101534.34;;;1.14;70.85
49541;BME280;35432;43.566;1.398;2023-02-12T05:11:39;101546.44;;;1.13;70.19
49541;BME280;35432;43.566;1.398;2023-02-12T05:14:04;101545.47;;;1.11;70.86
49541;BME280;35432;43.566;1.398;2023-02-12T05:16:30;101541.91;;;1.09;70.34
49541;BME280;35432;43.566;1.398;2023-02-12T05:18:56;101541.72;;;1.06;70.67
49541;BME280;35432;43.566;1.398;2023-02-12T05:21:21;101541.53;;;1.03;70.56
49541;BME280;35432;43.566;1.398;2023-02-12T05:23:46;101536.34;;;1.03;71.29
49541;BME280;35432;43.566;1.398;2023-02-12T05:26:14;101538.94;;;1.03;71.39
49541;BME280;35432;43.566;1.398;2023-02-12T05:28:40;101532.06;;;1.04;71.14
49541;BME280;35432;43.566;1.398;2023-02-12T05:31:07;101541.47;;;1.02;70.67
49541;BME280;35432;43.566;1.398;2023-02-12T05:33:33;101528.41;;;1.00;70.49
49541;BME280;35432;43.566;1.398;2023-02-12T05:36:10;101530.94;;;0.98;70.88
49541;BME280;35432;43.566;1.398;2023-02-12T05:38:36;101532.63;;;0.98;70.58
49541;BME280;35432;43.566;1.398;2023-02-12T05:41:10;101542.91;;;0.96;70.19
49541;BME280;35432;43.566;1.398;2023-02-12T05:43:35;101538.50;;;0.95;70.73
49541;BME280;35432;43.566;1.398;2023-02-12T05:46:03;101545.31;;;0.93;70.51
49541;BME280;35432;43.566;1.398;2023-02-12T05:48:29;101536.56;;;0.91;71.21
49541;BME280;35432;43.566;1.398;2023-02-12T05:51:02;101535.41;;;0.86;70.53
49541;BME280;35432;43.566;1.398;2023-02-12T05:53:28;101547.50;;;0.85;71.02
49541;BME280;35432;43.566;1.398;2023-02-12T05:55:53;101550.72;;;0.81;70.70
49541;BME280;35432;43.566;1.398;2023-02-12T05:58:19;101546.34;;;0.80;70.40
49541;BME280;35432;43.566;1.398;2023-02-12T06:00:44;101555.72;;;0.78;70.83
49541;BME280;35432;43.566;1.398;2023-02-12T06:03:09;101558.31;;;0.78;70.84
49541;BME280;35432;43.566;1.398;2023-02-12T06:05:35;101560.03;;;0.78;70.83
49541;BME280;35432;43.566;1.398;2023-02-12T06:08:00;101553.88;;;0.76;70.20
49541;BME280;35432;43.566;1.398;2023-02-12T06:10:26;101553.72;;;0.73;70.37
49541;BME280;35432;43.566;1.398;2023-02-12T06:12:54;101555.22;;;0.69;70.67
49541;BME280;35432;43.566;1.398;2023-02-12T06:15:20;101556.03;;;0.68;70.37
49541;BME280;35432;43.566;1.398;2023-02-12T06:17:45;101543.88;;;0.67;70.21
49541;BME280;35432;43.566;1.398;2023-02-12T06:20:11;101555.91;;;0.66;70.30
49541;BME280;35432;43.566;1.398;2023-02-12T06:22:36;101557.53;;;0.64;70.51
49541;BME280;35432;43.566;1.398;2023-02-12T06:25:03;101557.47;;;0.63;70.48
49541;BME280;35432;43.566;1.398;2023-02-12T06:27:29;101556.50;;;0.61;70.86
49541;BME280;35432;43.566;1.398;2023-02-12T06:29:54;101553.78;;;0.59;70.91
49541;BME280;35432;43.566;1.398;2023-02-12T06:32:19;101560.59;;;0.57;70.45
49541;BME280;35432;43.566;1.398;2023-02-12T06:34:45;101561.28;;;0.54;70.77
49541;BME280;35432;43.566;1.398;2023-02-12T06:37:10;101560.31;;;0.52;71.14
49541;BME280;35432;43.566;1.398;2023-02-12T06:39:36;101559.44;;;0.52;70.96
49541;BME280;35432;43.566;1.398;2023-02-12T06:42:02;101558.47;;;0.50;70.84
49541;BME280;35432;43.566;1.398;2023-02-12T06:44:28;101559.25;;;0.49;70.48
49541;BME280;35432;43.566;1.398;2023-02-12T06:46:53;101561.75;;;0.47;70.60
49541;BME280;35432;43.566;1.398;2023-02-12T06:49:18;101555.66;;;0.47;70.55
49541;BME280;35432;43.566;1.398;2023-02-12T06:51:44;101561.66;;;0.46;70.77
49541;BME280;35432;43.566;1.398;2023-02-12T06:54:14;101560.78;;;0.45;70.85
49541;BME280;35432;43.566;1.398;2023-02-12T06:56:39;101563.38;;;0.45;71.14
49541;BME280;35432;43.566;1.398;2023-02-12T06:59:05;101568.63;;;0.47;70.41
49541;BME280;35432;43.566;1.398;2023-02-12T07:01:30;101568.63;;;0.47;70.98
49541;BME280;35432;43.566;1.398;2023-02-12T07:03:58;101556.47;;;0.46;70.88
49541;BME280;35432;43.566;1.398;2023-02-12T07:06:25;101561.75;;;0.47;70.53
49541;BME280;35432;43.566;1.398;2023-02-12T07:08:51;101567.81;;;0.48;70.87
49541;BME280;35432;43.566;1.398;2023-02-12T07:11:17;101564.53;;;0.50;70.77
49541;BME280;35432;43.566;1.398;2023-02-12T07:13:43;101564.69;;;0.53;70.73
49541;BME280;35432;43.566;1.398;2023-02-12T07:16:11;101562.28;;;0.56;70.87
49541;BME280;35432;43.566;1.398;2023-02-12T07:18:38;101571.22;;;0.62;70.94
49541;BME280;35432;43.566;1.398;2023-02-12T07:21:05;101567.19;;;0.67;70.50
49541;BME280;35432;43.566;1.398;2023-02-12T07:23:32;101570.13;;;0.73;70.34
49541;BME280;35432;43.566;1.398;2023-02-12T07:26:00;101574.69;;;0.77;70.51
49541;BME280;35432;43.566;1.398;2023-02-12T07:28:26;101585.41;;;0.83;70.83
49541;BME280;35432;43.566;1.398;2023-02-12T07:30:52;101584.16;;;0.92;70.95
49541;BME280;35432;43.566;1.398;2023-02-12T07:33:18;101581.09;;;0.99;70.18
49541;BME280;35432;43.566;1.398;2023-02-12T07:35:44;101598.78;;;1.06;70.33
49541;BME280;35432;43.566;1.398;2023-02-12T07:38:09;101588.84;;;1.14;70.49
49541;BME280;35432;43.566;1.398;2023-02-12T07:40:35;101594.63;;;1.25;70.88
49541;BME280;35432;43.566;1.398;2023-02-12T07:43:01;101597.09;;;1.38;70.61
49541;BME280;35432;43.566;1.398;2023-02-12T07:45:26;101599.63;;;1.53;70.71
49541;BME280;35432;43.566;1.398;2023-02-12T07:47:52;101598.03;;;1.72;70.70
49541;BME280;35432;43.566;1.398;2023-02-12T07:50:17;101599.34;;;1.97;70.20
49541;BME280;35432;43.566;1.398;2023-02-12T07:52:43;101600.84;;;2.26;70.44
49541;BME280;35432;43.566;1.398;2023-02-12T07:55:08;101593.38;;;2.67;70.12
49541;BME280;35432;43.566;1.398;2023-02-12T07:57:34;101586.69;;;3.27;69.34
49541;BME280;35432;43.566;1.398;2023-02-12T08:00:00;101577.66;;;4.17;68.62
49541;BME280;35432;43.566;1.398;2023-02-12T08:02:26;101575.22;;;5.28;67.96
49541;BME280;35432;43.566;1.398;2023-02-12T08:04:57;101559.09;;;6.36;65.23
49541;BME280;35432;43.566;1.398;2023-02-12T08:07:23;101559.41;;;7.58;64.96
49541;BME280;35432;43.566;1.398;2023-02-12T08:09:49;101553.72;;;9.09;63.79
49541;BME280;35432;43.566;1.398;2023-02-12T08:12:16;101544.72;;;10.79;62.38
49541;BME280;35432;43.566;1.398;2023-02-12T08:14:42;101543.19;;;12.42;60.59
49541;BME280;35432;43.566;1.398;2023-02-12T08:17:07;101536.13;;;13.96;58.49
49541;BME280;35432;43.566;1.398;2023-02-12T08:19:33;101537.00;;;15.30;56.26
49541;BME280;35432;43.566;1.398;2023-02-12T08:21:59;101536.38;;;16.49;54.55
49541;BME280;35432;43.566;1.398;2023-02-12T08:24:26;101532.56;;;17.60;53.16
49541;BME280;35432;43.566;1.398;2023-02-12T08:26:52;101524.81;;;18.63;51.64
49541;BME280;35432;43.566;1.398;2023-02-12T08:29:20;101521.28;;;19.56;50.18
49541;BME280;35432;43.566;1.398;2023-02-12T08:31:48;101520.34;;;20.39;48.17
49541;BME280;35432;43.566;1.398;2023-02-12T08:34:27;101517.47;;;21.14;45.69
49541;BME280;35432;43.566;1.398;2023-02-12T08:36:54;101519.63;;;21.93;46.06
49541;BME280;35432;43.566;1.398;2023-02-12T08:39:21;101520.13;;;22.61;44.80
49541;BME280;35432;43.566;1.398;2023-02-12T08:41:47;101509.00;;;23.21;44.03
49541;BME280;35432;43.566;1.398;2023-02-12T08:44:13;101518.50;;;23.79;42.93
49541;BME280;35432;43.566;1.398;2023-02-12T08:46:42;101518.28;;;24.30;41.20
49541;BME280;35432;43.566;1.398;2023-02-12T08:49:12;101515.53;;;24.75;39.25
49541;BME280;35432;43.566;1.398;2023-02-12T08:51:41;101513.31;;;25.25;40.93
49541;BME280;35432;43.566;1.398;2023-02-12T08:54:10;101514.59;;;25.56;38.95
49541;BME280;35432;43.566;1.398;2023-02-12T08:56:36;101505.28;;;26.00;39.45
49541;BME280;35432;43.566;1.398;2023-02-12T08:59:03;101513.56;;;26.33;38.22
49541;BME280;35432;43.566;1.398;2023-02-12T09:01:31;101505.53;;;26.67;38.13
49541;BME280;35432;43.566;1.398;2023-02-12T09:03:57;101501.69;;;26.90;37.64
49541;BME280;35432;43.566;1.398;2023-02-12T09:06:24;101502.59;;;27.23;37.51
49541;BME280;35432;43.566;1.398;2023-02-12T09:08:51;101499.56;;;27.63;36.73
49541;BME280;35432;43.566;1.398;2023-02-12T09:11:19;101499.53;;;27.95;36.30
49541;BME280;35432;43.566;1.398;2023-02-12T09:13:48;101503.19;;;28.26;36.04
49541;BME280;35432;43.566;1.398;2023-02-12T09:16:13;101506.75;;;28.57;35.42
49541;BME280;35432;43.566;1.398;2023-02-12T09:18:39;101509.06;;;28.79;34.96
49541;BME280;35432;43.566;1.398;2023-02-12T09:21:08;101502.38;;;29.00;34.39
49541;BME280;35432;43.566;1.398;2023-02-12T09:23:34;101499.88;;;29.40;34.69
49541;BME280;35432;43.566;1.398;2023-02-12T09:26:03;101502.34;;;29.72;33.88
49541;BME280;35432;43.566;1.398;2023-02-12T09:28:29;101491.59;;;29.98;34.16
49541;BME280;35432;43.566;1.398;2023-02-12T09:30:54;101496.78;;;30.16;33.50
49541;BME280;35432;43.566;1.398;2023-02-12T09:33:20;101492.47;;;30.26;33.38
49541;BME280;35432;43.566;1.398;2023-02-12T09:35:47;101494.28;;;30.53;32.64
49541;BME280;35432;43.566;1.398;2023-02-12T09:38:12;101483.22;;;30.82;32.72
49541;BME280;35432;43.566;1.398;2023-02-12T09:43:52;101483.00;;;31.11;32.17
49541;BME280;35432;43.566;1.398;2023-02-12T09:51:21;101469.44;;;31.86;31.91
49541;BME280;35432;43.566;1.398;2023-02-12T09:53:49;101468.78;;;32.06;31.36
49541;BME280;35432;43.566;1.398;2023-02-12T09:56:21;101476.53;;;32.24;30.55
49541;BME280;35432;43.566;1.398;2023-02-12T09:58:51;101474.38;;;32.41;30.83
49541;BME280;35432;43.566;1.398;2023-02-12T10:01:20;101468.13;;;32.63;30.54
49541;BME280;35432;43.566;1.398;2023-02-12T10:03:48;101469.09;;;32.73;29.80
49541;BME280;35432;43.566;1.398;2023-02-12T10:06:21;101467.25;;;32.74;29.09
49541;BME280;35432;43.566;1.398;2023-02-12T10:09:00;101470.78;;;32.99;30.17
49541;BME280;35432;43.566;1.398;2023-02-12T10:11:42;101466.94;;;33.13;29.45
49541;BME280;35432;43.566;1.398;2023-02-12T10:17:31;101460.09;;;33.30;29.09
49541;BME280;35432;43.566;1.398;2023-02-12T10:28:08;101462.91;;;33.51;26.73
49541;BME280;35432;43.566;1.398;2023-02-12T10:30:49;101465.44;;;33.09;21.84
49541;BME280;35432;43.566;1.398;2023-02-12T10:39:24;101460.78;;;31.92;29.45
49541;BME280;35432;43.566;1.398;2023-02-12T10:44:22;101457.47;;;30.88;29.94
49541;BME280;35432;43.566;1.398;2023-02-12T10:46:47;101452.88;;;30.62;30.75
49541;BME280;35432;43.566;1.398;2023-02-12T10:49:15;101450.91;;;30.64;30.63
49541;BME280;35432;43.566;1.398;2023-02-12T10:54:40;101458.84;;;30.81;29.56
49541;BME280;35432;43.566;1.398;2023-02-12T10:59:38;101459.06;;;30.64;30.65
49541;BME280;35432;43.566;1.398;2023-02-12T11:02:15;101451.34;;;30.84;30.24
49541;BME280;35432;43.566;1.398;2023-02-12T11:04:42;101443.84;;;31.01;29.96
49541;BME280;35432;43.566;1.398;2023-02-12T11:07:08;101433.16;;;30.98;29.77
49541;BME280;35432;43.566;1.398;2023-02-12T11:09:42;101434.28;;;30.95;28.43
49541;BME280;35432;43.566;1.398;2023-02-12T11:14:48;101425.81;;;29.53;22.80
49541;BME280;35432;43.566;1.398;2023-02-12T11:17:23;101437.31;;;29.00;28.97
49541;BME280;35432;43.566;1.398;2023-02-12T11:20:04;101433.56;;;28.43;29.85
49541;BME280;35432;43.566;1.398;2023-02-12T11:22:30;101438.91;;;28.14;33.54
49541;BME280;35432;43.566;1.398;2023-02-12T11:25:01;101434.75;;;27.28;30.05
49541;BME280;35432;43.566;1.398;2023-02-12T11:27:29;101434.28;;;26.70;35.17
49541;BME280;35432;43.566;1.398;2023-02-12T11:32:29;101435.78;;;25.68;36.58
49541;BME280;35432;43.566;1.398;2023-02-12T11:35:21;101434.94;;;24.89;35.48
49541;BME280;35432;43.566;1.398;2023-02-12T11:37:56;101428.22;;;24.58;37.43
49541;BME280;35432;43.566;1.398;2023-02-12T11:40:25;101429.81;;;24.21;38.44
49541;BME280;35432;43.566;1.398;2023-02-12T11:42:54;101426.09;;;23.58;38.84
49541;BME280;35432;43.566;1.398;2023-02-12T11:45:27;101426.66;;;22.97;37.82
49541;BME280;35432;43.566;1.398;2023-02-12T11:47:54;101430.25;;;22.72;41.35
49541;BME280;35432;43.566;1.398;2023-02-12T11:50:30;101422.56;;;22.35;40.27
49541;BME280;35432;43.566;1.398;2023-02-12T11:53:03;101420.41;;;21.93;41.32
49541;BME280;35432;43.566;1.398;2023-02-12T11:55:34;101422.22;;;21.64;43.24
49541;BME280;35432;43.566;1.398;2023-02-12T11:58:24;101422.31;;;21.31;41.01
49541;BME280;35432;43.566;1.398;2023-02-12T12:01:21;101413.56;;;21.26;42.77
49541;BME280;35432;43.566;1.398;2023-02-12T12:04:06;101412.34;;;21.06;43.05
49541;BME280;35432;43.566;1.398;2023-02-12T12:09:39;101412.38;;;20.73;43.02
49541;BME280;35432;43.566;1.398;2023-02-12T12:12:16;101401.53;;;20.46;43.45
49541;BME280;35432;43.566;1.398;2023-02-12T12:14:59;101404.97;;;20.16;42.20
49541;BME280;35432;43.566;1.398;2023-02-12T12:21:19;101398.16;;;19.65;45.92
49541;BME280;35432;43.566;1.398;2023-02-12T12:23:52;101402.63;;;19.27;45.75
49541;BME280;35432;43.566;1.398;2023-02-12T12:26:23;101395.09;;;19.03;47.63
49541;BME280;35432;43.566;1.398;2023-02-12T12:31:45;101395.31;;;18.47;46.64
49541;BME280;35432;43.566;1.398;2023-02-12T12:34:16;101394.88;;;18.21;44.34
49541;BME280;35432;43.566;1.398;2023-02-12T12:50:17;101384.84;;;17.83;47.09
49541;BME280;35432;43.566;1.398;2023-02-12T12:52:49;101379.94;;;17.55;48.92
49541;BME280;35432;43.566;1.398;2023-02-12T13:01:05;101371.34;;;17.35;50.27
49541;BME280;35432;43.566;1.398;2023-02-12T13:13:58;101369.19;;;16.97;48.36
49541;BME280;35432;43.566;1.398;2023-02-12T13:16:37;101361.28;;;16.90;48.06
49541;BME280;35432;43.566;1.398;2023-02-12T13:19:43;101357.03;;;16.74;44.03
49541;BME280;35432;43.566;1.398;2023-02-12T13:25:06;101360.69;;;16.68;47.25
49541;BME280;35432;43.566;1.398;2023-02-12T13:27:41;101350.09;;;16.63;50.90
49541;BME280;35432;43.566;1.398;2023-02-12T13:30:18;101350.16;;;16.57;42.83
49541;BME280;35432;43.566;1.398;2023-02-12T13:33:06;101348.38;;;16.59;47.03
49541;BME280;35432;43.566;1.398;2023-02-12T13:35:37;101350.09;;;16.63;50.65
49541;BME280;35432;43.566;1.398;2023-02-12T13:38:06;101351.03;;;16.59;50.24
49541;BME280;35432;43.566;1.398;2023-02-12T13:40:33;101352.81;;;16.57;50.80
49541;BME280;35432;43.566;1.398;2023-02-12T13:57:00;101344.97;;;16.45;49.44
49541;BME280;35432;43.566;1.398;2023-02-12T13:59:38;101341.56;;;16.33;44.16
49541;BME280;35432;43.566;1.398;2023-02-12T14:04:44;101329.22;;;16.26;46.64
49541;BME280;35432;43.566;1.398;2023-02-12T14:07:15;101335.47;;;16.24;48.40
49541;BME280;35432;43.566;1.398;2023-02-12T14:25:00;101328.69;;;15.90;49.77
49541;BME280;35432;43.566;1.398;2023-02-12T14:27:35;101320.72;;;15.90;50.95
49541;BME280;35432;43.566;1.398;2023-02-12T14:40:52;101326.19;;;15.67;48.57
49541;BME280;35432;43.566;1.398;2023-02-12T14:51:39;101323.69;;;15.46;47.64
49541;BME280;35432;43.566;1.398;2023-02-12T14:54:17;101314.91;;;15.41;48.03
49541;BME280;35432;43.566;1.398;2023-02-12T14:56:47;101315.75;;;15.42;52.23
49541;BME280;35432;43.566;1.398;2023-02-12T14:59:19;101313.19;;;15.32;47.98
49541;BME280;35432;43.566;1.398;2023-02-12T15:01:47;101308.78;;;15.30;52.72
49541;BME280;35432;43.566;1.398;2023-02-12T15:04:23;101301.72;;;15.26;50.61
49541;BME280;35432;43.566;1.398;2023-02-12T15:07:19;101308.81;;;15.24;47.93
49541;BME280;35432;43.566;1.398;2023-02-12T15:09:52;101307.91;;;15.28;51.87
49541;BME280;35432;43.566;1.398;2023-02-12T15:12:29;101315.88;;;15.28;50.04
49541;BME280;35432;43.566;1.398;2023-02-12T15:15:14;101312.34;;;15.26;49.16
49541;BME280;35432;43.566;1.398;2023-02-12T15:17:53;101314.13;;;15.24;50.78
49541;BME280;35432;43.566;1.398;2023-02-12T15:20:24;101306.22;;;15.17;50.52
49541;BME280;35432;43.566;1.398;2023-02-12T15:22:51;101309.78;;;15.12;53.58
49541;BME280;35432;43.566;1.398;2023-02-12T15:27:52;101316.03;;;15.03;53.92
49541;BME280;35432;43.566;1.398;2023-02-12T15:30:22;101310.72;;;15.00;53.07
49541;BME280;35432;43.566;1.398;2023-02-12T15:32:49;101309.00;;;14.92;53.62
49541;BME280;35432;43.566;1.398;2023-02-12T15:35:33;101317.00;;;14.85;45.94
49541;BME280;35432;43.566;1.398;2023-02-12T15:38:00;101311.72;;;14.83;53.99
49541;BME280;35432;43.566;1.398;2023-02-12T15:40:27;101309.94;;;14.82;54.36
49541;BME280;35432;43.566;1.398;2023-02-12T15:43:16;101315.28;;;14.73;47.91
49541;BME280;35432;43.566;1.398;2023-02-12T15:45:50;101317.06;;;14.74;52.32
49541;BME280;35432;43.566;1.398;2023-02-12T15:48:21;101312.63;;;14.70;52.56
49541;BME280;35432;43.566;1.398;2023-02-12T15:53:45;101317.09;;;14.61;54.89
49541;BME280;35432;43.566;1.398;2023-02-12T15:56:19;101314.44;;;14.57;51.37
49541;BME280;35432;43.566;1.398;2023-02-12T15:58:48;101315.31;;;14.54;54.11
49541;BME280;35432;43.566;1.398;2023-02-12T16:01:19;101318.91;;;14.47;52.85
49541;BME280;35432;43.566;1.398;2023-02-12T16:03:51;101322.44;;;14.43;51.01
49541;BME280;35432;43.566;1.398;2023-02-12T16:06:19;101325.97;;;14.42;55.99
49541;BME280;35432;43.566;1.398;2023-02-12T16:08:48;101317.16;;;14.35;54.82
49541;BME280;35432;43.566;1.398;2023-02-12T16:11:18;101320.69;;;14.29;54.96
49541;BME280;35432;43.566;1.398;2023-02-12T16:13:49;101320.72;;;14.26;55.85
49541;BME280;35432;43.566;1.398;2023-02-12T16:19:05;101321.66;;;14.13;50.79
49541;BME280;35432;43.566;1.398;2023-02-12T16:21:33;101325.19;;;14.12;55.78